createdAt,value
2019-02-09T00:01:29.096Z,99.40
2019-02-09T00:04:31.439Z,99.00
2019-02-09T00:07:33.707Z,99.60
2019-02-09T00:10:36.067Z,99.80
2019-02-09T00:13:38.407Z,99.90
2019-02-09T00:16:40.779Z,99.90
2019-02-09T00:19:43.184Z,99.90
2019-02-09T00:22:45.427Z,99.90
2019-02-09T00:25:47.684Z,99.10
2019-02-09T00:28:49.952Z,99.30
2019-02-09T00:31:52.231Z,99.90
2019-02-09T00:34:54.571Z,98.70
2019-02-09T00:37:56.880Z,97.80
2019-02-09T00:40:59.183Z,98.20
2019-02-09T00:44:01.535Z,99.40
2019-02-09T00:47:03.810Z,98.20
2019-02-09T00:50:06.880Z,99.40
2019-02-09T00:53:09.139Z,97.00
2019-02-09T00:56:11.435Z,95.00
2019-02-09T00:59:13.707Z,96.50
2019-02-09T01:02:15.992Z,97.50
2019-02-09T01:05:20.520Z,98.90
2019-02-09T01:08:22.776Z,99.00
2019-02-09T01:11:25.091Z,99.60
2019-02-09T01:14:27.355Z,99.90
2019-02-09T01:17:29.671Z,99.90
2019-02-09T01:20:31.958Z,99.80
2019-02-09T01:23:34.245Z,98.80
2019-02-09T01:26:36.535Z,96.90
2019-02-09T01:29:38.808Z,97.30
2019-02-09T01:32:41.134Z,97.40
2019-02-09T01:35:43.393Z,97.80
2019-02-09T01:38:45.652Z,98.80
2019-02-09T01:41:47.962Z,97.50
2019-02-09T01:44:50.219Z,98.90
2019-02-09T01:47:52.622Z,98.80
2019-02-09T01:50:54.917Z,96.70
2019-02-09T01:53:57.237Z,95.80
2019-02-09T01:56:59.499Z,95.00
2019-02-09T02:00:01.838Z,94.90
2019-02-09T02:03:18.715Z,96.10
2019-02-09T02:06:20.965Z,95.70
2019-02-09T02:09:23.206Z,95.60
2019-02-09T02:12:25.491Z,94.80
2019-02-09T02:15:27.912Z,94.00
2019-02-09T02:18:30.179Z,93.90
2019-02-09T02:21:32.462Z,92.30
2019-02-09T02:24:34.745Z,91.60
2019-02-09T02:27:36.965Z,92.70
2019-02-09T02:30:39.293Z,93.40
2019-02-09T02:33:41.505Z,93.70
2019-02-09T02:36:43.735Z,94.10
2019-02-09T02:39:45.989Z,93.30
2019-02-09T02:42:48.315Z,93.40
2019-02-09T02:45:50.625Z,93.30
2019-02-09T02:48:52.933Z,93.00
2019-02-09T02:51:55.265Z,94.70
2019-02-09T02:54:57.479Z,93.30
2019-02-09T02:57:59.769Z,91.20
2019-02-09T03:02:26.584Z,91.00
2019-02-09T03:05:28.865Z,91.10
2019-02-09T03:08:31.124Z,90.90
2019-02-09T03:11:33.402Z,89.80
2019-02-09T03:14:35.655Z,91.20
2019-02-09T03:17:37.911Z,92.90
2019-02-09T03:20:40.190Z,93.60
2019-02-09T03:23:42.427Z,91.80
2019-02-09T03:26:44.716Z,91.90
2019-02-09T03:29:46.970Z,90.50
2019-02-09T03:32:49.270Z,90.30
2019-02-09T03:35:51.518Z,89.50
2019-02-09T03:38:53.822Z,89.50
2019-02-09T03:41:56.095Z,91.00
2019-02-09T03:44:58.305Z,91.20
2019-02-09T03:48:00.612Z,91.70
2019-02-09T03:51:02.915Z,90.90
2019-02-09T03:54:05.207Z,91.80
2019-02-09T03:57:07.533Z,91.70
2019-02-09T04:00:13.159Z,91.30
2019-02-09T04:03:15.442Z,90.80
2019-02-09T04:06:17.705Z,90.20
2019-02-09T04:09:19.971Z,90.80
2019-02-09T04:12:22.275Z,90.60
2019-02-09T04:15:24.628Z,90.20
2019-02-09T04:18:26.864Z,90.90
2019-02-09T04:21:29.095Z,91.50
2019-02-09T04:24:31.375Z,90.60
2019-02-09T04:27:33.596Z,89.00
2019-02-09T04:30:35.901Z,88.70
2019-02-09T04:33:38.115Z,86.00
2019-02-09T04:36:40.415Z,88.50
2019-02-09T04:39:42.674Z,83.00
2019-02-09T04:42:44.963Z,85.90
2019-02-09T04:45:47.245Z,84.10
2019-02-09T04:48:49.533Z,85.40
2019-02-09T04:51:51.783Z,81.20
2019-02-09T04:54:54.131Z,84.60
2019-02-09T04:57:56.428Z,86.90
2019-02-09T05:00:58.719Z,86.40
2019-02-09T05:04:01.010Z,86.00
2019-02-09T05:07:03.367Z,88.20
2019-02-09T05:10:06.074Z,86.20
2019-02-09T05:13:08.368Z,86.30
2019-02-09T05:16:10.603Z,90.20
2019-02-09T05:19:12.878Z,89.20
2019-02-09T05:22:15.146Z,88.80
2019-02-09T05:25:17.562Z,90.20
2019-02-09T05:28:19.859Z,92.50
2019-02-09T05:31:23.525Z,92.50
2019-02-09T05:34:24.374Z,91.30
2019-02-09T05:37:26.631Z,85.40
2019-02-09T05:40:28.893Z,88.00
2019-02-09T05:43:31.167Z,87.80
2019-02-09T05:46:33.421Z,90.60
2019-02-09T05:49:35.701Z,86.80
2019-02-09T05:52:37.967Z,87.60
2019-02-09T05:55:40.333Z,82.50
2019-02-09T05:58:42.615Z,83.90
2019-02-09T06:01:44.908Z,85.70
2019-02-09T06:04:47.200Z,89.90
2019-02-09T06:07:49.495Z,90.40
2019-02-09T06:10:51.785Z,89.50
2019-02-09T06:13:54.087Z,90.40
2019-02-09T06:16:56.344Z,89.50
2019-02-09T06:19:58.654Z,89.50
2019-02-09T06:23:00.925Z,86.70
2019-02-09T06:26:03.717Z,88.90
2019-02-09T06:29:05.719Z,86.50
2019-02-09T06:32:07.958Z,85.20
2019-02-09T06:35:10.367Z,85.30
2019-02-09T06:38:12.588Z,84.50
2019-02-09T06:41:14.816Z,86.90
2019-02-09T06:44:17.092Z,85.50
2019-02-09T06:47:19.355Z,86.20
2019-02-09T06:50:26.237Z,91.30
2019-02-09T06:53:28.474Z,92.80
2019-02-09T06:56:30.718Z,95.40
2019-02-09T06:59:32.980Z,97.20
2019-02-09T07:02:35.251Z,99.30
2019-02-09T07:05:37.569Z,99.90
2019-02-09T07:08:39.838Z,99.90
2019-02-09T07:11:42.140Z,99.90
2019-02-09T07:14:44.395Z,99.90
2019-02-09T07:17:46.659Z,99.90
2019-02-09T07:20:48.945Z,99.90
2019-02-09T07:23:51.203Z,99.90
2019-02-09T07:26:53.511Z,99.90
2019-02-09T07:29:55.775Z,99.90
2019-02-09T07:32:58.078Z,99.90
2019-02-09T07:36:00.343Z,99.90
2019-02-09T07:39:03.050Z,99.90
2019-02-09T07:42:05.313Z,99.90
2019-02-09T07:45:09.416Z,99.90
2019-02-09T07:48:11.675Z,99.90
2019-02-09T07:51:13.987Z,99.90
2019-02-09T07:54:16.263Z,99.90
2019-02-09T07:57:18.559Z,99.90
2019-02-09T08:00:23.436Z,99.90
2019-02-09T08:03:25.739Z,99.90
2019-02-09T08:06:27.995Z,99.90
2019-02-09T08:09:30.320Z,99.90
2019-02-09T08:12:32.574Z,99.90
2019-02-09T08:15:34.911Z,99.90
2019-02-09T08:18:37.207Z,99.90
2019-02-09T08:21:39.471Z,99.90
2019-02-09T08:24:41.754Z,99.90
2019-02-09T08:27:44.037Z,99.90
2019-02-09T08:30:46.498Z,99.90
2019-02-09T08:33:48.737Z,99.90
2019-02-09T08:36:51.106Z,99.90
2019-02-09T08:39:53.350Z,99.90
2019-02-09T08:42:56.431Z,99.90
2019-02-09T08:45:58.780Z,99.80
2019-02-09T08:49:01.013Z,99.40
2019-02-09T08:52:03.385Z,98.70
2019-02-09T08:55:05.698Z,99.90
2019-02-09T08:58:07.971Z,99.30
2019-02-09T09:01:10.257Z,99.50
2019-02-09T09:04:12.488Z,98.80
2019-02-09T09:07:14.791Z,98.10
2019-02-09T09:10:17.855Z,98.60
2019-02-09T09:13:20.106Z,98.00
2019-02-09T09:16:22.328Z,97.40
2019-02-09T09:19:24.598Z,97.30
2019-02-09T09:22:26.880Z,97.20
2019-02-09T09:25:29.151Z,97.40
2019-02-09T09:28:31.453Z,97.00
2019-02-09T09:31:33.769Z,97.50
2019-02-09T09:34:36.031Z,96.60
2019-02-09T09:37:38.323Z,96.80
2019-02-09T09:40:40.934Z,96.10
2019-02-09T09:43:43.283Z,95.40
2019-02-09T09:46:45.550Z,95.80
2019-02-09T09:49:47.871Z,96.30
2019-02-09T09:52:50.146Z,96.10
2019-02-09T09:55:52.419Z,95.20
2019-02-09T09:58:54.691Z,94.60
2019-02-09T10:01:56.976Z,95.60
2019-02-09T10:04:59.257Z,95.50
2019-02-09T10:08:01.597Z,95.00
2019-02-09T10:11:04.524Z,95.90
2019-02-09T10:14:08.929Z,95.50
2019-02-09T10:17:09.394Z,95.00
2019-02-09T10:20:13.609Z,95.40
2019-02-09T10:23:15.839Z,94.50
2019-02-09T10:26:18.083Z,94.80
2019-02-09T10:29:20.382Z,94.90
2019-02-09T10:32:22.700Z,94.40
2019-02-09T10:35:25.060Z,94.20
2019-02-09T10:38:27.308Z,93.70
2019-02-09T10:41:29.643Z,93.70
2019-02-09T10:44:31.924Z,93.20
2019-02-09T10:47:34.198Z,93.30
2019-02-09T10:50:38.701Z,93.60
2019-02-09T10:53:40.988Z,93.50
2019-02-09T10:56:43.248Z,92.90
2019-02-09T10:59:45.511Z,93.20
2019-02-09T11:02:52.213Z,93.70
2019-02-09T11:05:50.110Z,93.60
2019-02-09T11:08:52.426Z,93.50
2019-02-09T11:11:54.715Z,92.90
2019-02-09T11:14:56.985Z,92.60
2019-02-09T11:17:59.333Z,91.20
2019-02-09T11:21:01.601Z,91.50
2019-02-09T11:24:03.895Z,89.50
2019-02-09T11:27:06.154Z,89.50
2019-02-09T11:30:11.759Z,90.40
2019-02-09T11:33:14.017Z,89.20
2019-02-09T11:36:16.280Z,90.70
2019-02-09T11:39:18.556Z,89.10
2019-02-09T11:42:20.820Z,90.60
2019-02-09T11:45:24.760Z,90.60
2019-02-09T11:48:27.041Z,89.70
2019-02-09T11:51:29.395Z,89.50
2019-02-09T11:54:31.658Z,90.10
2019-02-09T11:57:33.959Z,89.90
2019-02-09T12:00:40.095Z,89.60
2019-02-09T12:03:42.392Z,89.50
2019-02-09T12:06:44.634Z,89.40
2019-02-09T12:09:46.903Z,89.90
2019-02-09T12:12:49.215Z,87.80
2019-02-09T12:15:51.500Z,88.90
2019-02-09T12:18:53.731Z,89.60
2019-02-09T12:21:56.052Z,89.80
2019-02-09T12:24:58.327Z,90.40
2019-02-09T12:28:00.627Z,89.90
2019-02-09T12:31:02.914Z,90.90
2019-02-09T12:34:05.267Z,91.30
2019-02-09T12:37:07.515Z,90.20
2019-02-09T12:40:12.965Z,88.80
2019-02-09T12:43:15.309Z,89.20
2019-02-09T12:46:17.587Z,90.00
2019-02-09T12:49:19.876Z,88.40
2019-02-09T12:52:22.160Z,90.20
2019-02-09T12:55:24.479Z,88.90
2019-02-09T12:58:26.711Z,90.20
2019-02-09T13:02:58.580Z,89.10
2019-02-09T13:06:00.901Z,88.60
2019-02-09T13:09:06.336Z,86.40
2019-02-09T13:12:08.634Z,87.40
2019-02-09T13:15:13.403Z,89.40
2019-02-09T13:18:15.687Z,86.90
2019-02-09T13:21:17.960Z,87.60
2019-02-09T13:24:20.259Z,87.40
2019-02-09T13:27:22.512Z,89.70
2019-02-09T13:30:27.059Z,88.00
2019-02-09T13:33:29.335Z,88.40
2019-02-09T13:36:31.614Z,88.60
2019-02-09T13:39:33.860Z,88.00
2019-02-09T13:42:36.131Z,90.00
2019-02-09T13:45:40.908Z,90.10
2019-02-09T13:48:43.143Z,89.40
2019-02-09T13:51:45.471Z,90.10
2019-02-09T13:54:47.735Z,90.10
2019-02-09T13:57:50.083Z,90.70
2019-02-09T14:00:52.471Z,91.00
2019-02-09T14:03:54.684Z,90.70
2019-02-09T14:06:56.950Z,90.60
2019-02-09T14:09:59.214Z,90.70
2019-02-09T14:13:01.508Z,90.00
2019-02-09T14:16:08.134Z,90.60
2019-02-09T14:19:06.217Z,90.50
2019-02-09T14:22:08.508Z,91.00
2019-02-09T14:25:10.869Z,91.30
2019-02-09T14:28:13.176Z,91.20
2019-02-09T14:31:15.452Z,91.30
2019-02-09T14:34:17.725Z,92.30
2019-02-09T14:37:20.002Z,90.90
2019-02-09T14:40:25.184Z,90.00
2019-02-09T14:43:27.483Z,91.00
2019-02-09T14:46:29.732Z,91.30
2019-02-09T14:49:31.989Z,89.90
2019-02-09T14:52:34.287Z,90.90
2019-02-09T14:55:36.645Z,90.20
2019-02-09T14:58:38.866Z,90.50
2019-02-09T15:01:41.564Z,89.20
2019-02-09T15:04:43.424Z,90.90
2019-02-09T15:07:45.728Z,90.00
2019-02-09T15:10:48.058Z,90.30
2019-02-09T15:13:50.426Z,89.60
2019-02-09T15:16:54.607Z,90.20
2019-02-09T15:19:56.905Z,90.50
2019-02-09T15:22:59.524Z,91.60
2019-02-09T15:26:01.795Z,90.00
2019-02-09T15:29:04.160Z,90.10
2019-02-09T15:32:06.450Z,90.60
2019-02-09T15:35:09.859Z,90.80
2019-02-09T15:38:12.131Z,89.10
2019-02-09T15:41:14.428Z,89.10
2019-02-09T15:44:16.750Z,90.50
2019-02-09T15:47:19.058Z,90.30
2019-02-09T15:50:21.997Z,91.10
2019-02-09T15:53:24.351Z,90.10
2019-02-09T15:56:26.598Z,90.70
2019-02-09T15:59:28.847Z,90.90
2019-02-09T16:02:31.077Z,91.10
2019-02-09T16:05:33.357Z,90.80
2019-02-09T16:08:35.679Z,91.40
2019-02-09T16:11:37.932Z,92.60
2019-02-09T16:14:40.235Z,92.50
2019-02-09T16:17:42.499Z,92.30
2019-02-09T16:20:44.738Z,92.30
2019-02-09T16:23:47.000Z,91.80
2019-02-09T16:26:49.265Z,92.10
2019-02-09T16:29:51.538Z,91.50
2019-02-09T16:32:53.861Z,92.40
2019-02-09T16:35:56.086Z,92.60
2019-02-09T16:38:58.357Z,92.50
2019-02-09T16:42:00.651Z,92.10
2019-02-09T16:45:03.815Z,92.10
2019-02-09T16:48:06.116Z,92.50
2019-02-09T16:51:08.395Z,92.40
2019-02-09T16:54:10.616Z,92.80
2019-02-09T16:57:12.888Z,92.90
2019-02-09T17:00:19.435Z,93.30
2019-02-09T17:03:21.669Z,93.30
2019-02-09T17:06:23.923Z,93.50
2019-02-09T17:09:26.268Z,93.10
2019-02-09T17:12:28.526Z,94.00
2019-02-09T17:15:30.803Z,94.40
2019-02-09T17:18:33.059Z,94.20
2019-02-09T17:21:35.335Z,94.90
2019-02-09T17:24:37.686Z,94.30
2019-02-09T17:27:39.998Z,94.70
2019-02-09T17:30:42.233Z,95.30
2019-02-09T17:33:44.487Z,95.00
2019-02-09T17:36:46.716Z,94.60
2019-02-09T17:39:49.063Z,95.40
2019-02-09T17:42:53.277Z,95.80
2019-02-09T17:45:57.857Z,96.50
2019-02-09T17:49:00.135Z,95.80
2019-02-09T17:52:02.391Z,95.70
2019-02-09T17:55:05.381Z,95.50
2019-02-09T17:58:07.671Z,96.20
2019-02-09T18:01:11.792Z,96.40
2019-02-09T18:04:14.047Z,96.00
2019-02-09T18:07:16.331Z,96.00
2019-02-09T18:10:18.691Z,96.00
2019-02-09T18:13:20.947Z,95.70
2019-02-09T18:16:23.247Z,95.90
2019-02-09T18:19:25.601Z,96.20
2019-02-09T18:22:27.862Z,95.60
2019-02-09T18:25:30.139Z,95.40
2019-02-09T18:28:32.376Z,96.00
2019-02-09T18:31:34.945Z,96.40
2019-02-09T18:34:37.216Z,95.70
2019-02-09T18:37:39.590Z,95.90
2019-02-09T18:40:41.911Z,94.90
2019-02-09T18:43:44.211Z,95.90
2019-02-09T18:46:46.491Z,94.80
2019-02-09T18:49:48.763Z,95.00
2019-02-09T18:52:51.067Z,95.10
2019-02-09T18:55:53.461Z,94.20
2019-02-09T18:58:55.719Z,95.40
2019-02-09T19:01:58.049Z,95.00
2019-02-09T19:05:04.420Z,94.70
2019-02-09T19:08:02.684Z,94.00
2019-02-09T19:11:04.947Z,93.70
2019-02-09T19:14:07.267Z,93.20
2019-02-09T19:17:09.538Z,93.30
2019-02-09T19:20:15.763Z,93.20
2019-02-09T19:23:18.007Z,94.40
2019-02-09T19:26:20.283Z,94.50
2019-02-09T19:29:22.575Z,93.70
2019-02-09T19:32:24.955Z,93.20
2019-02-09T19:35:27.277Z,93.50
2019-02-09T19:38:29.596Z,93.80
2019-02-09T19:41:31.904Z,93.60
2019-02-09T19:44:34.177Z,92.80
2019-02-09T19:47:36.491Z,92.60
2019-02-09T19:50:38.750Z,93.30
2019-02-09T19:53:41.243Z,92.90
2019-02-09T19:56:43.317Z,92.00
2019-02-09T19:59:45.561Z,92.20
2019-02-09T20:02:47.811Z,92.70
2019-02-09T20:05:50.216Z,93.10
2019-02-09T20:08:53.609Z,91.80
2019-02-09T20:11:55.915Z,91.60
2019-02-09T20:14:58.195Z,92.10
2019-02-09T20:18:00.549Z,92.40
2019-02-09T20:21:02.801Z,91.50
2019-02-09T20:24:05.099Z,92.40
2019-02-09T20:27:07.535Z,92.30
2019-02-09T20:30:14.867Z,92.40
2019-02-09T20:33:17.259Z,92.60
2019-02-09T20:36:20.385Z,92.50
2019-02-09T20:39:22.665Z,92.60
2019-02-09T20:42:25.132Z,92.70
2019-02-09T20:45:27.519Z,91.40
2019-02-09T20:48:29.964Z,92.20
2019-02-09T20:51:32.536Z,91.90
2019-02-09T20:54:34.809Z,91.70
2019-02-09T20:57:37.206Z,91.70
2019-02-09T21:00:39.553Z,91.40
2019-02-09T21:03:42.062Z,91.40
2019-02-09T21:06:44.483Z,92.40
2019-02-09T21:09:47.120Z,92.00
2019-02-09T21:12:49.384Z,91.70
2019-02-09T21:15:51.697Z,92.90
2019-02-09T21:18:53.969Z,93.10
2019-02-09T21:21:56.265Z,93.20
2019-02-09T21:24:58.696Z,93.10
2019-02-09T21:28:01.018Z,92.90
2019-02-09T21:31:03.295Z,93.00
2019-02-09T21:34:05.748Z,92.60
2019-02-09T21:37:08.352Z,92.30
2019-02-09T21:40:13.479Z,92.30
2019-02-09T21:43:16.007Z,92.10
2019-02-09T21:46:18.373Z,92.90
2019-02-09T21:49:20.607Z,92.00
2019-02-09T21:52:23.010Z,91.80
2019-02-09T21:55:25.361Z,92.30
2019-02-09T21:58:27.690Z,93.10
2019-02-09T22:01:29.976Z,92.00
2019-02-09T22:04:32.223Z,92.30
2019-02-09T22:07:34.579Z,92.00
2019-02-09T22:10:36.928Z,93.30
2019-02-09T22:13:39.295Z,93.90
2019-02-09T22:16:41.689Z,93.40
2019-02-09T22:19:43.996Z,94.50
2019-02-09T22:22:46.366Z,94.80
2019-02-09T22:25:48.807Z,95.10
2019-02-09T22:28:51.067Z,96.00
2019-02-09T22:31:53.330Z,96.20
2019-02-09T22:34:55.798Z,95.80
2019-02-09T22:37:58.182Z,95.60
2019-02-09T22:41:00.480Z,96.70
2019-02-09T22:44:02.753Z,97.20
2019-02-09T22:47:05.063Z,96.60
2019-02-09T22:50:18.828Z,96.20
2019-02-09T22:53:13.220Z,95.40
2019-02-09T22:56:15.560Z,95.20
2019-02-09T22:59:17.785Z,96.50
2019-02-09T23:02:20.379Z,97.30
2019-02-09T23:05:32.955Z,97.90
2019-02-09T23:08:35.224Z,98.00
2019-02-09T23:11:37.974Z,98.10
2019-02-09T23:14:40.328Z,98.00
2019-02-09T23:17:42.645Z,97.80
2019-02-09T23:20:45.019Z,97.80
2019-02-09T23:23:47.452Z,98.20
2019-02-09T23:26:49.860Z,98.90
2019-02-09T23:29:52.115Z,98.00
2019-02-09T23:32:54.580Z,98.00
2019-02-09T23:35:56.971Z,97.30
2019-02-09T23:38:59.288Z,97.20
2019-02-09T23:42:01.621Z,97.70
2019-02-09T23:45:04.003Z,97.60
2019-02-09T23:48:06.279Z,97.40
2019-02-09T23:51:08.619Z,97.00
2019-02-09T23:54:10.941Z,96.40
2019-02-09T23:57:13.245Z,96.20
